sensor_id;sensor_type;location;lat;lon;timestamp;P1;durP1;ratioP1;P2;durP2;ratioP2
45316;SDS011;31053;55.870;37.592;2024-02-16T00:00:19;17.40;;;6.13;;
45316;SDS011;31053;55.870;37.592;2024-02-16T00:03:23;16.83;;;5.82;;
45316;SDS011;31053;55.870;37.592;2024-02-16T00:06:28;18.45;;;5.85;;
45316;SDS011;31053;55.870;37.592;2024-02-16T00:09:32;13.38;;;4.93;;
45316;SDS011;31053;55.870;37.592;2024-02-16T00:12:37;15.77;;;6.43;;
45316;SDS011;31053;55.870;37.592;2024-02-16T00:15:44;15.27;;;6.28;;
45316;SDS011;31053;55.870;37.592;2024-02-16T00:18:48;29.00;;;8.82;;
45316;SDS011;31053;55.870;37.592;2024-02-16T00:21:53;12.48;;;5.28;;
45316;SDS011;31053;55.870;37.592;2024-02-16T00:24:58;15.38;;;5.43;;
45316;SDS011;31053;55.870;37.592;2024-02-16T00:28:02;17.20;;;6.90;;
45316;SDS011;31053;55.870;37.592;2024-02-16T00:31:07;24.98;;;6.85;;
45316;SDS011;31053;55.870;37.592;2024-02-16T00:34:12;18.10;;;6.70;;
45316;SDS011;31053;55.870;37.592;2024-02-16T00:37:17;14.00;;;4.68;;
45316;SDS011;31053;55.870;37.592;2024-02-16T00:40:22;19.40;;;6.28;;
45316;SDS011;31053;55.870;37.592;2024-02-16T00:43:26;14.55;;;4.63;;
45316;SDS011;31053;55.870;37.592;2024-02-16T00:46:31;13.68;;;4.43;;
45316;SDS011;31053;55.870;37.592;2024-02-16T00:49:36;11.13;;;5.00;;
45316;SDS011;31053;55.870;37.592;2024-02-16T00:52:40;14.27;;;6.00;;
45316;SDS011;31053;55.870;37.592;2024-02-16T00:55:45;15.02;;;5.10;;
45316;SDS011;31053;55.870;37.592;2024-02-16T00:58:50;11.32;;;3.08;;
45316;SDS011;31053;55.870;37.592;2024-02-16T01:01:54;11.98;;;4.88;;
45316;SDS011;31053;55.870;37.592;2024-02-16T01:04:59;15.07;;;5.30;;
45316;SDS011;31053;55.870;37.592;2024-02-16T01:08:06;11.18;;;4.07;;
45316;SDS011;31053;55.870;37.592;2024-02-16T01:11:11;13.52;;;5.53;;
45316;SDS011;31053;55.870;37.592;2024-02-16T01:14:15;4.43;;;1.90;;
45316;SDS011;31053;55.870;37.592;2024-02-16T01:17:19;14.05;;;5.97;;
45316;SDS011;31053;55.870;37.592;2024-02-16T01:20:23;15.90;;;4.78;;
45316;SDS011;31053;55.870;37.592;2024-02-16T01:23:28;15.52;;;4.90;;
45316;SDS011;31053;55.870;37.592;2024-02-16T01:26:33;17.55;;;5.95;;
45316;SDS011;31053;55.870;37.592;2024-02-16T01:29:38;11.55;;;4.53;;
45316;SDS011;31053;55.870;37.592;2024-02-16T01:32:42;15.82;;;5.63;;
45316;SDS011;31053;55.870;37.592;2024-02-16T01:35:46;20.15;;;6.85;;
45316;SDS011;31053;55.870;37.592;2024-02-16T01:38:50;8.00;;;3.83;;
45316;SDS011;31053;55.870;37.592;2024-02-16T01:41:55;12.13;;;5.63;;
45316;SDS011;31053;55.870;37.592;2024-02-16T01:44:59;15.73;;;5.32;;
45316;SDS011;31053;55.870;37.592;2024-02-16T01:48:05;15.57;;;4.80;;
45316;SDS011;31053;55.870;37.592;2024-02-16T01:51:10;13.20;;;5.85;;
45316;SDS011;31053;55.870;37.592;2024-02-16T01:54:15;14.75;;;5.72;;
45316;SDS011;31053;55.870;37.592;2024-02-16T02:00:26;8.80;;;3.35;;
45316;SDS011;31053;55.870;37.592;2024-02-16T02:03:30;15.27;;;6.85;;
45316;SDS011;31053;55.870;37.592;2024-02-16T02:06:36;13.23;;;4.63;;
45316;SDS011;31053;55.870;37.592;2024-02-16T02:09:42;14.23;;;5.72;;
45316;SDS011;31053;55.870;37.592;2024-02-16T02:12:46;11.15;;;5.70;;
45316;SDS011;31053;55.870;37.592;2024-02-16T02:15:51;14.82;;;4.20;;
45316;SDS011;31053;55.870;37.592;2024-02-16T02:18:56;16.67;;;5.93;;
45316;SDS011;31053;55.870;37.592;2024-02-16T02:22:00;25.63;;;7.85;;
45316;SDS011;31053;55.870;37.592;2024-02-16T02:25:05;14.40;;;5.78;;
45316;SDS011;31053;55.870;37.592;2024-02-16T02:28:09;11.95;;;4.47;;
45316;SDS011;31053;55.870;37.592;2024-02-16T02:31:14;18.45;;;6.15;;
45316;SDS011;31053;55.870;37.592;2024-02-16T02:34:18;35.28;;;5.82;;
45316;SDS011;31053;55.870;37.592;2024-02-16T02:37:24;20.85;;;6.78;;
45316;SDS011;31053;55.870;37.592;2024-02-16T02:40:29;17.00;;;5.70;;
45316;SDS011;31053;55.870;37.592;2024-02-16T02:43:33;11.45;;;3.80;;
45316;SDS011;31053;55.870;37.592;2024-02-16T02:46:38;16.45;;;5.47;;
45316;SDS011;31053;55.870;37.592;2024-02-16T02:49:43;24.40;;;7.50;;
45316;SDS011;31053;55.870;37.592;2024-02-16T02:52:48;13.63;;;4.30;;
45316;SDS011;31053;55.870;37.592;2024-02-16T02:55:52;21.50;;;5.22;;
45316;SDS011;31053;55.870;37.592;2024-02-16T02:58:57;13.60;;;6.15;;
45316;SDS011;31053;55.870;37.592;2024-02-16T03:02:01;15.27;;;6.45;;
45316;SDS011;31053;55.870;37.592;2024-02-16T03:05:06;10.65;;;4.40;;
45316;SDS011;31053;55.870;37.592;2024-02-16T03:08:11;19.55;;;7.13;;
45316;SDS011;31053;55.870;37.592;2024-02-16T03:11:15;15.30;;;6.57;;
45316;SDS011;31053;55.870;37.592;2024-02-16T03:14:20;12.50;;;5.35;;
45316;SDS011;31053;55.870;37.592;2024-02-16T03:17:25;16.50;;;6.47;;
45316;SDS011;31053;55.870;37.592;2024-02-16T03:20:29;15.02;;;5.07;;
45316;SDS011;31053;55.870;37.592;2024-02-16T03:23:34;14.60;;;5.57;;
45316;SDS011;31053;55.870;37.592;2024-02-16T03:26:38;16.73;;;6.68;;
45316;SDS011;31053;55.870;37.592;2024-02-16T03:29:43;14.18;;;4.75;;
45316;SDS011;31053;55.870;37.592;2024-02-16T03:32:48;18.30;;;7.30;;
45316;SDS011;31053;55.870;37.592;2024-02-16T03:35:53;12.40;;;3.92;;
45316;SDS011;31053;55.870;37.592;2024-02-16T03:38:58;18.60;;;6.38;;
45316;SDS011;31053;55.870;37.592;2024-02-16T03:42:03;11.63;;;5.35;;
45316;SDS011;31053;55.870;37.592;2024-02-16T03:45:07;21.65;;;5.80;;
45316;SDS011;31053;55.870;37.592;2024-02-16T03:48:15;21.08;;;7.28;;
45316;SDS011;31053;55.870;37.592;2024-02-16T03:51:20;10.75;;;5.45;;
45316;SDS011;31053;55.870;37.592;2024-02-16T03:54:24;16.98;;;6.47;;
45316;SDS011;31053;55.870;37.592;2024-02-16T03:57:30;21.85;;;8.00;;
45316;SDS011;31053;55.870;37.592;2024-02-16T04:00:34;14.33;;;5.67;;
45316;SDS011;31053;55.870;37.592;2024-02-16T04:03:40;16.23;;;6.00;;
45316;SDS011;31053;55.870;37.592;2024-02-16T04:06:45;21.63;;;6.60;;
45316;SDS011;31053;55.870;37.592;2024-02-16T04:09:50;13.57;;;5.05;;
45316;SDS011;31053;55.870;37.592;2024-02-16T04:12:55;18.85;;;6.45;;
45316;SDS011;31053;55.870;37.592;2024-02-16T04:16:00;18.05;;;6.43;;
45316;SDS011;31053;55.870;37.592;2024-02-16T04:19:04;17.95;;;5.47;;
45316;SDS011;31053;55.870;37.592;2024-02-16T04:22:09;24.33;;;7.70;;
45316;SDS011;31053;55.870;37.592;2024-02-16T04:25:13;16.55;;;5.70;;
45316;SDS011;31053;55.870;37.592;2024-02-16T04:28:18;13.30;;;4.43;;
45316;SDS011;31053;55.870;37.592;2024-02-16T04:31:23;13.60;;;5.20;;
45316;SDS011;31053;55.870;37.592;2024-02-16T04:34:28;18.70;;;7.55;;
45316;SDS011;31053;55.870;37.592;2024-02-16T04:37:33;20.87;;;7.47;;
45316;SDS011;31053;55.870;37.592;2024-02-16T04:40:37;19.13;;;7.20;;
45316;SDS011;31053;55.870;37.592;2024-02-16T04:43:42;17.75;;;7.57;;
45316;SDS011;31053;55.870;37.592;2024-02-16T04:46:48;23.52;;;4.78;;
45316;SDS011;31053;55.870;37.592;2024-02-16T04:49:55;18.05;;;8.27;;
45316;SDS011;31053;55.870;37.592;2024-02-16T04:53:00;29.35;;;7.53;;
45316;SDS011;31053;55.870;37.592;2024-02-16T04:56:05;22.40;;;7.65;;
45316;SDS011;31053;55.870;37.592;2024-02-16T04:59:10;19.08;;;7.60;;
45316;SDS011;31053;55.870;37.592;2024-02-16T05:02:15;17.75;;;5.28;;
45316;SDS011;31053;55.870;37.592;2024-02-16T05:05:21;19.70;;;7.03;;
45316;SDS011;31053;55.870;37.592;2024-02-16T05:11:31;23.00;;;8.35;;
45316;SDS011;31053;55.870;37.592;2024-02-16T05:14:36;20.08;;;6.63;;
45316;SDS011;31053;55.870;37.592;2024-02-16T05:17:41;26.00;;;8.13;;
45316;SDS011;31053;55.870;37.592;2024-02-16T05:20:46;19.77;;;7.05;;
45316;SDS011;31053;55.870;37.592;2024-02-16T05:23:53;12.20;;;5.50;;
45316;SDS011;31053;55.870;37.592;2024-02-16T05:26:59;19.90;;;7.65;;
45316;SDS011;31053;55.870;37.592;2024-02-16T05:30:06;14.53;;;6.13;;
45316;SDS011;31053;55.870;37.592;2024-02-16T05:33:14;18.38;;;5.50;;
45316;SDS011;31053;55.870;37.592;2024-02-16T05:36:20;15.70;;;5.95;;
45316;SDS011;31053;55.870;37.592;2024-02-16T05:39:25;14.88;;;5.60;;
45316;SDS011;31053;55.870;37.592;2024-02-16T05:42:35;17.15;;;5.78;;
45316;SDS011;31053;55.870;37.592;2024-02-16T05:45:41;16.30;;;5.65;;
45316;SDS011;31053;55.870;37.592;2024-02-16T05:48:46;13.30;;;3.33;;
45316;SDS011;31053;55.870;37.592;2024-02-16T05:51:52;13.48;;;4.20;;
45316;SDS011;31053;55.870;37.592;2024-02-16T05:55:15;8.85;;;4.45;;
45316;SDS011;31053;55.870;37.592;2024-02-16T05:58:23;8.20;;;3.35;;
45316;SDS011;31053;55.870;37.592;2024-02-16T06:01:31;22.90;;;8.00;;
45316;SDS011;31053;55.870;37.592;2024-02-16T06:04:35;13.48;;;5.07;;
45316;SDS011;31053;55.870;37.592;2024-02-16T06:10:46;18.10;;;6.07;;
45316;SDS011;31053;55.870;37.592;2024-02-16T06:13:56;15.18;;;5.97;;
45316;SDS011;31053;55.870;37.592;2024-02-16T06:17:00;15.77;;;5.88;;
45316;SDS011;31053;55.870;37.592;2024-02-16T06:20:05;10.35;;;4.35;;
45316;SDS011;31053;55.870;37.592;2024-02-16T06:23:17;19.50;;;5.82;;
45316;SDS011;31053;55.870;37.592;2024-02-16T06:26:22;15.95;;;5.50;;
45316;SDS011;31053;55.870;37.592;2024-02-16T06:29:27;9.68;;;3.85;;
45316;SDS011;31053;55.870;37.592;2024-02-16T06:32:33;21.58;;;5.90;;
45316;SDS011;31053;55.870;37.592;2024-02-16T06:35:40;21.05;;;7.07;;
45316;SDS011;31053;55.870;37.592;2024-02-16T06:38:45;16.60;;;5.88;;
45316;SDS011;31053;55.870;37.592;2024-02-16T06:41:51;15.45;;;6.47;;
45316;SDS011;31053;55.870;37.592;2024-02-16T06:44:56;19.38;;;8.32;;
45316;SDS011;31053;55.870;37.592;2024-02-16T06:48:03;19.35;;;8.18;;
45316;SDS011;31053;55.870;37.592;2024-02-16T06:51:09;12.48;;;5.53;;
45316;SDS011;31053;55.870;37.592;2024-02-16T06:54:16;22.63;;;6.78;;
45316;SDS011;31053;55.870;37.592;2024-02-16T06:57:22;23.40;;;6.78;;
45316;SDS011;31053;55.870;37.592;2024-02-16T07:00:29;24.23;;;9.05;;
45316;SDS011;31053;55.870;37.592;2024-02-16T07:03:34;22.20;;;7.57;;
45316;SDS011;31053;55.870;37.592;2024-02-16T07:06:42;22.08;;;8.15;;
45316;SDS011;31053;55.870;37.592;2024-02-16T07:09:49;18.92;;;7.10;;
45316;SDS011;31053;55.870;37.592;2024-02-16T07:13:03;31.88;;;9.23;;
45316;SDS011;31053;55.870;37.592;2024-02-16T07:16:08;22.27;;;6.72;;
45316;SDS011;31053;55.870;37.592;2024-02-16T07:19:28;18.63;;;5.80;;
45316;SDS011;31053;55.870;37.592;2024-02-16T07:22:33;11.85;;;4.97;;
45316;SDS011;31053;55.870;37.592;2024-02-16T07:25:37;16.42;;;6.60;;
45316;SDS011;31053;55.870;37.592;2024-02-16T07:28:43;15.38;;;6.57;;
45316;SDS011;31053;55.870;37.592;2024-02-16T07:31:47;20.33;;;7.03;;
45316;SDS011;31053;55.870;37.592;2024-02-16T07:34:53;17.95;;;5.65;;
45316;SDS011;31053;55.870;37.592;2024-02-16T07:37:58;15.68;;;6.32;;
45316;SDS011;31053;55.870;37.592;2024-02-16T07:41:03;16.70;;;6.47;;
45316;SDS011;31053;55.870;37.592;2024-02-16T07:47:13;21.88;;;8.23;;
45316;SDS011;31053;55.870;37.592;2024-02-16T07:50:20;14.63;;;6.82;;
45316;SDS011;31053;55.870;37.592;2024-02-16T07:53:26;20.23;;;7.00;;
45316;SDS011;31053;55.870;37.592;2024-02-16T07:56:30;17.40;;;6.13;;
45316;SDS011;31053;55.870;37.592;2024-02-16T07:59:34;16.58;;;5.40;;
45316;SDS011;31053;55.870;37.592;2024-02-16T08:02:39;15.10;;;4.70;;
45316;SDS011;31053;55.870;37.592;2024-02-16T08:05:46;11.20;;;4.60;;
45316;SDS011;31053;55.870;37.592;2024-02-16T08:08:50;19.13;;;7.47;;
45316;SDS011;31053;55.870;37.592;2024-02-16T08:11:56;19.83;;;7.28;;
45316;SDS011;31053;55.870;37.592;2024-02-16T08:15:07;22.25;;;7.57;;
45316;SDS011;31053;55.870;37.592;2024-02-16T08:18:21;13.20;;;5.90;;
45316;SDS011;31053;55.870;37.592;2024-02-16T08:21:26;19.85;;;7.50;;
45316;SDS011;31053;55.870;37.592;2024-02-16T08:24:34;19.60;;;7.32;;
45316;SDS011;31053;55.870;37.592;2024-02-16T08:27:39;16.33;;;6.32;;
45316;SDS011;31053;55.870;37.592;2024-02-16T08:30:44;21.38;;;9.10;;
45316;SDS011;31053;55.870;37.592;2024-02-16T08:33:49;16.02;;;6.57;;
45316;SDS011;31053;55.870;37.592;2024-02-16T08:36:55;21.63;;;7.80;;
45316;SDS011;31053;55.870;37.592;2024-02-16T08:39:59;20.13;;;7.38;;
45316;SDS011;31053;55.870;37.592;2024-02-16T08:43:05;11.90;;;5.75;;
45316;SDS011;31053;55.870;37.592;2024-02-16T08:46:11;15.13;;;6.30;;
45316;SDS011;31053;55.870;37.592;2024-02-16T08:49:16;22.60;;;8.55;;
45316;SDS011;31053;55.870;37.592;2024-02-16T08:52:21;26.55;;;7.68;;
45316;SDS011;31053;55.870;37.592;2024-02-16T08:55:25;24.63;;;7.13;;
45316;SDS011;31053;55.870;37.592;2024-02-16T08:58:30;17.52;;;6.00;;
45316;SDS011;31053;55.870;37.592;2024-02-16T09:01:35;18.58;;;7.28;;
45316;SDS011;31053;55.870;37.592;2024-02-16T09:04:40;17.48;;;7.32;;
45316;SDS011;31053;55.870;37.592;2024-02-16T09:07:45;19.38;;;7.35;;
45316;SDS011;31053;55.870;37.592;2024-02-16T09:10:51;12.80;;;6.00;;
45316;SDS011;31053;55.870;37.592;2024-02-16T09:13:56;12.68;;;5.25;;
45316;SDS011;31053;55.870;37.592;2024-02-16T09:17:01;18.60;;;8.30;;
45316;SDS011;31053;55.870;37.592;2024-02-16T09:20:06;28.33;;;9.32;;
45316;SDS011;31053;55.870;37.592;2024-02-16T09:23:12;24.92;;;9.65;;
45316;SDS011;31053;55.870;37.592;2024-02-16T09:26:17;34.45;;;12.15;;
45316;SDS011;31053;55.870;37.592;2024-02-16T09:29:21;23.02;;;8.30;;
45316;SDS011;31053;55.870;37.592;2024-02-16T09:32:26;21.75;;;9.35;;
45316;SDS011;31053;55.870;37.592;2024-02-16T09:35:31;26.42;;;6.45;;
45316;SDS011;31053;55.870;37.592;2024-02-16T09:38:36;20.98;;;8.85;;
45316;SDS011;31053;55.870;37.592;2024-02-16T09:41:41;27.48;;;9.02;;
45316;SDS011;31053;55.870;37.592;2024-02-16T09:44:47;27.23;;;8.38;;
45316;SDS011;31053;55.870;37.592;2024-02-16T09:47:52;16.73;;;8.07;;
45316;SDS011;31053;55.870;37.592;2024-02-16T09:50:59;25.02;;;8.95;;
45316;SDS011;31053;55.870;37.592;2024-02-16T09:54:04;20.02;;;9.23;;
45316;SDS011;31053;55.870;37.592;2024-02-16T09:57:08;18.60;;;8.02;;
45316;SDS011;31053;55.870;37.592;2024-02-16T10:00:13;28.38;;;9.02;;
45316;SDS011;31053;55.870;37.592;2024-02-16T10:03:25;27.38;;;9.68;;
45316;SDS011;31053;55.870;37.592;2024-02-16T10:06:33;19.60;;;7.05;;
45316;SDS011;31053;55.870;37.592;2024-02-16T10:09:53;21.05;;;6.97;;
45316;SDS011;31053;55.870;37.592;2024-02-16T10:13:04;21.73;;;8.13;;
45316;SDS011;31053;55.870;37.592;2024-02-16T10:16:10;21.90;;;9.48;;
45316;SDS011;31053;55.870;37.592;2024-02-16T10:19:17;32.05;;;11.95;;
45316;SDS011;31053;55.870;37.592;2024-02-16T10:22:25;21.92;;;8.32;;
45316;SDS011;31053;55.870;37.592;2024-02-16T10:25:31;14.68;;;5.22;;
45316;SDS011;31053;55.870;37.592;2024-02-16T10:28:41;25.10;;;8.13;;
45316;SDS011;31053;55.870;37.592;2024-02-16T10:31:48;38.33;;;9.98;;
45316;SDS011;31053;55.870;37.592;2024-02-16T10:34:52;25.38;;;9.18;;
45316;SDS011;31053;55.870;37.592;2024-02-16T10:37:59;31.08;;;11.30;;
45316;SDS011;31053;55.870;37.592;2024-02-16T10:41:08;26.35;;;10.25;;
45316;SDS011;31053;55.870;37.592;2024-02-16T10:44:16;27.67;;;9.18;;
45316;SDS011;31053;55.870;37.592;2024-02-16T10:47:21;30.38;;;11.30;;
45316;SDS011;31053;55.870;37.592;2024-02-16T10:50:26;22.10;;;9.02;;
45316;SDS011;31053;55.870;37.592;2024-02-16T10:53:30;30.10;;;10.95;;
45316;SDS011;31053;55.870;37.592;2024-02-16T10:56:37;33.35;;;11.18;;
45316;SDS011;31053;55.870;37.592;2024-02-16T11:02:58;28.05;;;11.18;;
45316;SDS011;31053;55.870;37.592;2024-02-16T11:06:11;28.60;;;10.55;;
45316;SDS011;31053;55.870;37.592;2024-02-16T11:09:40;25.45;;;9.32;;
45316;SDS011;31053;55.870;37.592;2024-02-16T11:12:45;27.13;;;9.48;;
45316;SDS011;31053;55.870;37.592;2024-02-16T11:16:06;27.63;;;9.60;;
45316;SDS011;31053;55.870;37.592;2024-02-16T11:19:32;28.80;;;9.70;;
45316;SDS011;31053;55.870;37.592;2024-02-16T11:25:50;23.95;;;9.80;;
45316;SDS011;31053;55.870;37.592;2024-02-16T11:28:57;19.88;;;9.20;;
45316;SDS011;31053;55.870;37.592;2024-02-16T11:32:03;23.10;;;9.47;;
45316;SDS011;31053;55.870;37.592;2024-02-16T11:35:08;29.42;;;11.30;;
45316;SDS011;31053;55.870;37.592;2024-02-16T11:41:22;22.80;;;8.95;;
45316;SDS011;31053;55.870;37.592;2024-02-16T11:44:28;17.77;;;8.50;;
45316;SDS011;31053;55.870;37.592;2024-02-16T11:47:37;23.48;;;8.52;;
45316;SDS011;31053;55.870;37.592;2024-02-16T11:50:45;17.98;;;6.88;;
45316;SDS011;31053;55.870;37.592;2024-02-16T11:53:57;27.90;;;7.80;;
45316;SDS011;31053;55.870;37.592;2024-02-16T11:57:04;34.25;;;11.23;;
45316;SDS011;31053;55.870;37.592;2024-02-16T12:00:10;23.30;;;10.00;;
45316;SDS011;31053;55.870;37.592;2024-02-16T12:03:22;28.13;;;10.30;;
45316;SDS011;31053;55.870;37.592;2024-02-16T12:06:31;35.13;;;13.77;;
45316;SDS011;31053;55.870;37.592;2024-02-16T12:09:40;35.28;;;12.00;;
45316;SDS011;31053;55.870;37.592;2024-02-16T12:12:55;23.45;;;10.55;;
45316;SDS011;31053;55.870;37.592;2024-02-16T12:16:25;28.88;;;13.55;;
45316;SDS011;31053;55.870;37.592;2024-02-16T12:19:30;34.60;;;12.25;;
45316;SDS011;31053;55.870;37.592;2024-02-16T12:22:37;26.50;;;11.30;;
45316;SDS011;31053;55.870;37.592;2024-02-16T12:25:42;33.78;;;11.45;;
45316;SDS011;31053;55.870;37.592;2024-02-16T12:28:53;33.22;;;11.00;;
45316;SDS011;31053;55.870;37.592;2024-02-16T12:31:57;29.52;;;12.68;;
45316;SDS011;31053;55.870;37.592;2024-02-16T12:35:13;39.63;;;13.87;;
45316;SDS011;31053;55.870;37.592;2024-02-16T12:38:20;34.80;;;13.30;;
45316;SDS011;31053;55.870;37.592;2024-02-16T12:41:24;41.42;;;12.60;;
45316;SDS011;31053;55.870;37.592;2024-02-16T12:44:29;35.90;;;13.13;;
45316;SDS011;31053;55.870;37.592;2024-02-16T12:47:35;31.50;;;12.95;;
45316;SDS011;31053;55.870;37.592;2024-02-16T12:50:46;30.13;;;11.65;;
45316;SDS011;31053;55.870;37.592;2024-02-16T12:53:51;31.38;;;11.90;;
45316;SDS011;31053;55.870;37.592;2024-02-16T12:56:56;41.83;;;13.60;;
45316;SDS011;31053;55.870;37.592;2024-02-16T13:00:01;29.52;;;11.63;;
45316;SDS011;31053;55.870;37.592;2024-02-16T13:03:06;35.50;;;11.52;;
45316;SDS011;31053;55.870;37.592;2024-02-16T13:06:33;34.05;;;10.02;;
45316;SDS011;31053;55.870;37.592;2024-02-16T13:09:37;39.70;;;13.82;;
45316;SDS011;31053;55.870;37.592;2024-02-16T13:12:50;37.42;;;13.20;;
45316;SDS011;31053;55.870;37.592;2024-02-16T13:15:55;28.08;;;10.73;;
45316;SDS011;31053;55.870;37.592;2024-02-16T13:19:06;28.80;;;12.02;;
45316;SDS011;31053;55.870;37.592;2024-02-16T13:22:11;38.40;;;12.68;;
45316;SDS011;31053;55.870;37.592;2024-02-16T13:25:16;24.48;;;10.20;;
45316;SDS011;31053;55.870;37.592;2024-02-16T13:28:22;29.35;;;11.23;;
45316;SDS011;31053;55.870;37.592;2024-02-16T13:31:27;33.17;;;12.10;;
45316;SDS011;31053;55.870;37.592;2024-02-16T13:34:32;43.97;;;12.85;;
45316;SDS011;31053;55.870;37.592;2024-02-16T13:37:40;35.70;;;12.13;;
45316;SDS011;31053;55.870;37.592;2024-02-16T13:40:47;39.33;;;12.15;;
45316;SDS011;31053;55.870;37.592;2024-02-16T13:43:55;36.55;;;12.70;;
45316;SDS011;31053;55.870;37.592;2024-02-16T13:47:03;32.30;;;13.05;;
45316;SDS011;31053;55.870;37.592;2024-02-16T13:50:08;32.88;;;12.15;;
45316;SDS011;31053;55.870;37.592;2024-02-16T13:53:16;30.95;;;12.48;;
45316;SDS011;31053;55.870;37.592;2024-02-16T13:56:31;18.00;;;7.47;;
45316;SDS011;31053;55.870;37.592;2024-02-16T13:59:37;27.05;;;11.15;;
45316;SDS011;31053;55.870;37.592;2024-02-16T14:02:52;31.48;;;12.10;;
45316;SDS011;31053;55.870;37.592;2024-02-16T14:05:57;30.55;;;11.95;;
45316;SDS011;31053;55.870;37.592;2024-02-16T14:09:19;34.15;;;11.23;;
45316;SDS011;31053;55.870;37.592;2024-02-16T14:12:52;33.35;;;11.60;;
45316;SDS011;31053;55.870;37.592;2024-02-16T14:24:50;38.38;;;12.70;;
45316;SDS011;31053;55.870;37.592;2024-02-16T14:29:34;31.60;;;11.93;;
45316;SDS011;31053;55.870;37.592;2024-02-16T14:37:22;30.45;;;11.55;;
45316;SDS011;31053;55.870;37.592;2024-02-16T15:04:28;31.80;;;12.20;;
45316;SDS011;31053;55.870;37.592;2024-02-16T15:20:41;31.42;;;11.15;;
45316;SDS011;31053;55.870;37.592;2024-02-16T15:25:14;27.55;;;12.45;;
45316;SDS011;31053;55.870;37.592;2024-02-16T15:28:29;29.70;;;10.43;;
45316;SDS011;31053;55.870;37.592;2024-02-16T15:31:49;40.95;;;13.68;;
45316;SDS011;31053;55.870;37.592;2024-02-16T15:35:35;34.60;;;11.45;;
45316;SDS011;31053;55.870;37.592;2024-02-16T15:38:50;33.55;;;10.85;;
45316;SDS011;31053;55.870;37.592;2024-02-16T15:42:03;31.85;;;12.32;;
45316;SDS011;31053;55.870;37.592;2024-02-16T15:45:32;28.17;;;11.75;;
45316;SDS011;31053;55.870;37.592;2024-02-16T15:48:53;33.70;;;11.80;;
45316;SDS011;31053;55.870;37.592;2024-02-16T15:52:11;26.13;;;8.85;;
45316;SDS011;31053;55.870;37.592;2024-02-16T15:55:24;38.33;;;12.65;;
45316;SDS011;31053;55.870;37.592;2024-02-16T15:58:40;24.85;;;9.40;;
45316;SDS011;31053;55.870;37.592;2024-02-16T16:02:25;40.53;;;11.85;;
45316;SDS011;31053;55.870;37.592;2024-02-16T16:05:36;31.00;;;11.50;;
45316;SDS011;31053;55.870;37.592;2024-02-16T16:09:13;29.50;;;12.10;;
45316;SDS011;31053;55.870;37.592;2024-02-16T16:12:52;33.47;;;11.75;;
45316;SDS011;31053;55.870;37.592;2024-02-16T16:16:18;27.88;;;10.30;;
45316;SDS011;31053;55.870;37.592;2024-02-16T16:31:19;27.13;;;7.77;;
45316;SDS011;31053;55.870;37.592;2024-02-16T17:39:09;27.23;;;9.32;;
45316;SDS011;31053;55.870;37.592;2024-02-16T17:43:43;27.17;;;9.23;;
45316;SDS011;31053;55.870;37.592;2024-02-16T17:52:09;34.60;;;10.43;;
45316;SDS011;31053;55.870;37.592;2024-02-16T17:55:38;29.48;;;10.15;;
45316;SDS011;31053;55.870;37.592;2024-02-16T18:01:54;23.77;;;9.25;;
45316;SDS011;31053;55.870;37.592;2024-02-16T18:05:13;22.25;;;9.50;;
45316;SDS011;31053;55.870;37.592;2024-02-16T18:08:30;24.42;;;8.80;;
45316;SDS011;31053;55.870;37.592;2024-02-16T18:11:42;26.75;;;10.05;;
45316;SDS011;31053;55.870;37.592;2024-02-16T18:19:08;26.77;;;7.88;;
45316;SDS011;31053;55.870;37.592;2024-02-16T18:22:24;22.50;;;8.13;;
45316;SDS011;31053;55.870;37.592;2024-02-16T18:26:09;25.02;;;8.90;;
45316;SDS011;31053;55.870;37.592;2024-02-16T18:29:31;26.13;;;9.05;;
45316;SDS011;31053;55.870;37.592;2024-02-16T18:33:18;22.60;;;7.43;;
45316;SDS011;31053;55.870;37.592;2024-02-16T18:37:14;27.60;;;10.93;;
45316;SDS011;31053;55.870;37.592;2024-02-16T18:40:59;33.85;;;11.00;;
45316;SDS011;31053;55.870;37.592;2024-02-16T18:44:40;19.35;;;7.97;;
45316;SDS011;31053;55.870;37.592;2024-02-16T18:48:09;31.02;;;12.07;;
45316;SDS011;31053;55.870;37.592;2024-02-16T18:51:50;26.35;;;11.38;;
45316;SDS011;31053;55.870;37.592;2024-02-16T19:09:10;28.02;;;9.13;;
45316;SDS011;31053;55.870;37.592;2024-02-16T19:23:10;25.63;;;9.88;;
45316;SDS011;31053;55.870;37.592;2024-02-16T19:26:42;25.02;;;8.55;;
45316;SDS011;31053;55.870;37.592;2024-02-16T19:35:54;30.83;;;10.40;;
45316;SDS011;31053;55.870;37.592;2024-02-16T19:40:46;21.95;;;8.07;;
45316;SDS011;31053;55.870;37.592;2024-02-16T19:54:49;21.55;;;7.00;;
45316;SDS011;31053;55.870;37.592;2024-02-16T20:02:28;28.17;;;9.90;;
45316;SDS011;31053;55.870;37.592;2024-02-16T20:05:40;21.77;;;8.30;;
45316;SDS011;31053;55.870;37.592;2024-02-16T20:13:52;32.30;;;11.70;;
45316;SDS011;31053;55.870;37.592;2024-02-16T20:26:07;27.17;;;11.50;;
45316;SDS011;31053;55.870;37.592;2024-02-16T20:41:21;28.42;;;10.48;;
45316;SDS011;31053;55.870;37.592;2024-02-16T20:49:15;29.70;;;10.77;;
45316;SDS011;31053;55.870;37.592;2024-02-16T20:52:37;27.10;;;10.98;;
45316;SDS011;31053;55.870;37.592;2024-02-16T20:55:47;18.70;;;8.98;;
45316;SDS011;31053;55.870;37.592;2024-02-16T20:59:53;33.67;;;10.47;;
45316;SDS011;31053;55.870;37.592;2024-02-16T21:04:05;21.40;;;8.23;;
45316;SDS011;31053;55.870;37.592;2024-02-16T21:07:43;24.30;;;9.52;;
45316;SDS011;31053;55.870;37.592;2024-02-16T21:12:05;29.38;;;10.05;;
45316;SDS011;31053;55.870;37.592;2024-02-16T21:20:03;27.00;;;10.52;;
45316;SDS011;31053;55.870;37.592;2024-02-16T21:24:42;38.92;;;13.55;;
45316;SDS011;31053;55.870;37.592;2024-02-16T21:27:47;24.23;;;8.98;;
45316;SDS011;31053;55.870;37.592;2024-02-16T21:31:30;27.98;;;9.50;;
45316;SDS011;31053;55.870;37.592;2024-02-16T21:35:15;27.92;;;10.75;;
45316;SDS011;31053;55.870;37.592;2024-02-16T21:42:57;25.25;;;9.70;;
45316;SDS011;31053;55.870;37.592;2024-02-16T21:46:09;32.97;;;11.07;;
45316;SDS011;31053;55.870;37.592;2024-02-16T21:53:46;25.55;;;9.70;;
45316;SDS011;31053;55.870;37.592;2024-02-16T21:57:47;24.92;;;10.18;;
45316;SDS011;31053;55.870;37.592;2024-02-16T22:00:57;16.55;;;7.32;;
45316;SDS011;31053;55.870;37.592;2024-02-16T22:04:07;33.08;;;11.80;;
45316;SDS011;31053;55.870;37.592;2024-02-16T22:11:58;26.05;;;9.27;;
45316;SDS011;31053;55.870;37.592;2024-02-16T22:19:06;23.23;;;7.85;;
45316;SDS011;31053;55.870;37.592;2024-02-16T22:22:19;23.40;;;8.23;;
45316;SDS011;31053;55.870;37.592;2024-02-16T22:25:30;32.67;;;10.38;;
45316;SDS011;31053;55.870;37.592;2024-02-16T22:28:45;28.80;;;10.65;;
45316;SDS011;31053;55.870;37.592;2024-02-16T22:31:58;29.52;;;10.20;;
45316;SDS011;31053;55.870;37.592;2024-02-16T22:35:24;13.15;;;6.15;;
45316;SDS011;31053;55.870;37.592;2024-02-16T22:42:45;23.75;;;8.70;;
45316;SDS011;31053;55.870;37.592;2024-02-16T22:45:50;34.72;;;12.57;;
45316;SDS011;31053;55.870;37.592;2024-02-16T22:48:55;30.77;;;11.18;;
45316;SDS011;31053;55.870;37.592;2024-02-16T22:52:00;28.60;;;10.85;;
45316;SDS011;31053;55.870;37.592;2024-02-16T22:55:05;41.60;;;13.48;;
45316;SDS011;31053;55.870;37.592;2024-02-16T22:58:10;20.38;;;9.02;;